Current Weather Conditions from Arkansas, Oklahoma, Missouri & Kansas

As well as selected U.S. cities associated with XNA Flights


KVBT - Bentonville Arkansas, Airport
Updated: Tue, Apr-Tue-2020 1:56pm
Partly cloudy
Partly cloudy
 Wind from SSW
Wind: SSW 13 mph , 20 km/h
Temperature: 75°F , 24°C
Dew Point: 64°F , 18°C
Humidity: 69%
Barometer: 29.87 inHg , 1011.5 hPa
Clouds: Partly cloudy
Visibility: 10 miles , 16 km
Cloud details: Partly cloudy 2200 ft
2020/04/07 18:56 KVBT 071856Z AUTO 21011KT 10SM SCT022 24/18 A2987 RMK AO2 SLP106 T02390183 TSNO
KROG - Rogers Arkansas, Airport
Updated: Tue, Apr-Tue-2020 1:58pm
Clear
Clear
 Wind from SSW
Wind: SSW 12 mph , 19 km/h, Gust: 18 mph , 30 km/h
Temperature: 75°F , 24°C
Dew Point: 64°F , 18°C
Humidity: 69%
Barometer: 29.86 inHg , 1011.2 hPa
Clouds: Clear
Visibility: 10 miles , 16 km
2020/04/07 18:58 KROG 071858Z 20010G16KT 10SM CLR 24/18 A2986 RMK AO2 SLP098 T02390178
KXNA - Northwest Arkansas Regional Airport
Updated: Tue, Apr-Tue-2020 1:53pm
Clear
Clear
 Wind from SSW
Wind: SSW 12 mph , 19 km/h
Temperature: 75°F , 24°C
Dew Point: 63°F , 17°C
Humidity: 65%
Barometer: 29.85 inHg , 1010.8 hPa
Clouds: Clear
Visibility: 10 miles , 16 km
2020/04/07 18:53 KXNA 071853Z 20010KT 10SM CLR 24/17 A2985 RMK AO2 SLP094 T02440172
 
KSLG - Siloam Spring Arkansas, Airport
Updated: Tue, Apr-Tue-2020 1:56pm
Clear
Clear
 Wind from S
Wind: S 14 mph , 22 km/h, Gust: 20 mph , 31 km/h
Temperature: 77°F , 25°C
Dew Point: 66°F , 19°C
Humidity: 69%
Barometer: 29.85 inHg , 1010.8 hPa
Clouds: Clear
Visibility: 10 miles , 16 km
2020/04/07 18:56 KSLG 071856Z AUTO 19012G17KT 10SM CLR 25/19 A2985 RMK AO2 SLP098 T02500189 TSNO PNO $
KASG - Springdale, Arkansas, Airport
Updated: Tue, Apr-Tue-2020 1:48pm
Few Clouds
Few Clouds
 Wind from SSW
Wind: SSW 14 mph , 22 km/h
Temperature: 75°F , 24°C
Dew Point: 68°F , 20°C
Humidity: 78%
Barometer: 29.87 inHg , 1011.5 hPa
Clouds: Few Clouds
Visibility: 10 miles , 16 km
Cloud details: Few Clouds 2200 ft
2020/04/07 18:48 KASG 071848Z 20012KT 10SM FEW022 24/20 A2987
KFYV - Fayetteville Arkansas, Airport
Updated: Tue, Apr-Tue-2020 1:53pm
Clear
Clear
 Wind from SSW
Wind: SSW 14 mph , 22 km/h
Temperature: 77°F , 25°C
Dew Point: 64°F , 18°C
Humidity: 65%
Barometer: 29.86 inHg , 1011.2 hPa
Clouds: Clear
Visibility: 10 miles , 16 km
2020/04/07 18:53 KFYV 071853Z 21012KT 10SM CLR 25/18 A2986 RMK AO2 SLP098 T02500183
 
KHRO - Harrison, Arkansas
Updated: Tue, Apr-Tue-2020 1:53pm
Partly cloudy
Partly cloudy
 Wind from S
Wind: S 10 mph , 17 km/h
Temperature: 81°F , 27°C
Heat Index: 81°F , 27°C
Dew Point: 59°F , 15°C
Humidity: 48%
Barometer: 29.86 inHg , 1011.2 hPa
Clouds: Partly cloudy
Visibility: 10 miles , 16 km
Cloud details: Partly cloudy 3600 ft
2020/04/07 18:53 KHRO 071853Z AUTO 19009KT 10SM SCT036 27/15 A2986 RMK AO2 SLP096 T02670150
KFLP - Flippin, Arkansas
Updated: Tue, Apr-Tue-2020 1:56pm
Mostly cloudy
Mostly cloudy
 Wind from SW
Wind: SW 10 mph , 17 km/h
Temperature: 81°F , 27°C
Heat Index: 82°F , 28°C
Dew Point: 63°F , 17°C
Humidity: 54%
Barometer: 29.84 inHg , 1010.5 hPa
Clouds: Mostly cloudy
Visibility: 10 miles , 16 km
Cloud details: Mostly cloudy 4100 ft
2020/04/07 18:56 KFLP 071856Z AUTO 22009KT 10SM BKN041 27/17 A2984 RMK AO2 SLP099 T02670172
KBPK - Mountain Home, Arkansas
Updated: Tue, Apr-Tue-2020 1:53pm
Mostly cloudy
Mostly cloudy
 Wind from SW
Wind: SW 14 mph , 22 km/h, Gust: 20 mph , 31 km/h
Temperature: 79°F , 26°C
Dew Point: 63°F , 17°C
Humidity: 58%
Barometer: 29.84 inHg , 1010.5 hPa
Clouds: Mostly cloudy
Visibility: 10 miles , 16 km
Cloud details: Mostly cloudy 4100 ft
2020/04/07 18:53 KBPK 071853Z AUTO 23012G17KT 10SM BKN041 26/17 A2984 RMK AO2 SLP096 T02610172
 
KCCA - Clinton, Arkansas
Updated: Tue, Apr-Tue-2020 1:55pm
Mostly cloudy
Mostly cloudy
 Wind from SW
Wind: SW 8 mph , 13 km/h, Gust: 15 mph , 24 km/h
Temperature: 79°F , 26°C
Dew Point: 66°F , 19°C
Humidity: 65%
Barometer: 29.86 inHg , 1011.2 hPa
Clouds: Mostly cloudy
Visibility: 10 miles , 16 km
Cloud details: Few Clouds 3500 ft
Few Clouds 4100 ft
Mostly cloudy 4900 ft
2020/04/07 18:55 KCCA 071855Z AUTO 22007G13KT 10SM FEW035 FEW041 BKN049 26/19 A2986 RMK AO2
KRUE - Russellville, Arkansas
Updated: Tue, Apr-Tue-2020 1:53pm
Clear
Clear
 Wind from S
Wind: S 6 mph , 9 km/h
Temperature: 75°F , 24°C
Dew Point: 66°F , 19°C
Humidity: 74%
Barometer: 29.86 inHg , 1011.2 hPa
Clouds: Clear
Visibility: 10 miles , 16 km
2020/04/07 18:53 KRUE 071853Z AUTO 18005KT 10SM CLR 24/19 A2986 RMK AO2 SLP106 T02390189
KBVX - Batesville, Arkansa
Updated: Tue, Apr-Tue-2020 1:56pm
Overcast
Overcast
 Wind from S
Wind: S 8 mph , 13 km/h
Temperature: 77°F , 25°C
Dew Point: 68°F , 20°C
Humidity: 74%
Barometer: 29.88 inHg , 1011.9 hPa
Clouds: Overcast
Visibility: 10 miles , 16 km
Cloud details: Mostly cloudy 2300 ft
Overcast 2800 ft
2020/04/07 18:56 KBVX 071856Z AUTO 17007KT 10SM BKN023 OVC028 25/20 A2988 RMK AO2 SLP115 T02500200
 
KBYH - Blytheville, Arkansas
Updated: Tue, Apr-Tue-2020 1:59pm
Mostly cloudy
Mostly cloudy
 Wind from SSW
Wind: SSW 18 mph , 30 km/h, Gust: 25 mph , 41 km/h
Temperature: 75°F , 24°C
Dew Point: 64°F , 18°C
Humidity: 69%
Barometer: 29.90 inHg , 1012.5 hPa
Clouds: Mostly cloudy
Visibility: 10 miles , 16 km
Cloud details: Mostly cloudy 1800 ft
Mostly cloudy 3100 ft
Mostly cloudy 25000 ft
2020/04/07 18:59 KBYH 071859Z 21016G22KT 10SM BKN018 BKN031 BKN250 24/18 A2990
KM19 - Newport, Arkansas
Updated: Tue, Apr-Tue-2020 1:56pm
Overcast
Overcast
 Wind from SSW
Wind: SSW 18 mph , 30 km/h
Temperature: 73°F , 23°C
Dew Point: 68°F , 20°C
Humidity: 83%
Barometer: 29.89 inHg , 1012.2 hPa
Clouds: Overcast
Visibility: 10 miles , 16 km
Cloud details: Overcast 1500 ft
2020/04/07 18:56 KM19 071856Z AUTO 20016KT 10SM OVC015 23/20 A2989 RMK AO2 SLP118 T02330200
KSRC - Searcy, Arkansas
Updated: Tue, Apr-Tue-2020 1:56pm
Overcast
Overcast
 Wind from S
Wind: S 12 mph , 19 km/h, Gust: 20 mph , 31 km/h
Temperature: 75°F , 24°C
Dew Point: 70°F , 21°C
Humidity: 83%
Barometer: 29.90 inHg , 1012.5 hPa
Clouds: Overcast
Visibility: 10 miles , 16 km
Cloud details: Overcast 1800 ft
2020/04/07 18:56 KSRC 071856Z AUTO 19010G17KT 10SM OVC018 24/21 A2990 RMK AO2 SLP122 T02390211
 
KARG - Walnut Ridge, Arkansas
Updated: Tue, Apr-Tue-2020 1:56pm
Overcast
Overcast
 Wind from SSW
Wind: SSW 21 mph , 33 km/h
Temperature: 75°F , 24°C
Dew Point: 70°F , 21°C
Humidity: 83%
Barometer: 29.86 inHg , 1011.2 hPa
Clouds: Overcast
Visibility: 10 miles , 16 km
Cloud details: Mostly cloudy 1400 ft
Overcast 4700 ft
2020/04/07 18:56 KARG 071856Z AUTO 20018KT 10SM BKN014 OVC047 24/21 A2986 RMK AO2 SLP112 T02440206
KJBR - Jonesboro, Arkansas
Updated: Sat, Mar-Sat-2020 6:53pm
NOT Current

 
2020/03/28 23:53 KJBR 282353Z AUTO RMK AO2 LTG DSNT E-S RAEMM SLPNO P0005 60018 10239 20217 PWINO FZRANO $
K4M9 - Corning, Arkansas
Updated: Tue, Apr-Tue-2020 1:55pm
Partly cloudy
Partly cloudy
 Wind from S
Wind: S 21 mph , 33 km/h
Temperature: 77°F , 25°C
Dew Point: 72°F , 22°C
Humidity: 83%
Barometer: 29.87 inHg , 1011.5 hPa
Clouds: Partly cloudy
Visibility: 10 miles , 16 km
Cloud details: Partly cloudy 1600 ft
Partly cloudy 5000 ft
2020/04/07 18:55 K4M9 071855Z AUTO 19018KT 10SM SCT016 SCT050 25/22 A2987 RMK AO2 PWINO
 
KLRF - Little Rock Afb, Arkansas
Updated: Tue, Apr-Tue-2020 2:03pm
Overcast
Overcast
 Wind from S
Wind: S 5 mph , 7 km/h
Temperature: 73°F , 23°C
Dew Point: 70°F , 21°C
Humidity: 89%
Barometer: 29.89 inHg , 1012.2 hPa
Clouds: Overcast
Visibility: 10 miles , 16 km
Cloud details: Mostly cloudy 900 ft
Mostly cloudy 1500 ft
Overcast 1900 ft
2020/04/07 19:03 KLRF 071903Z AUTO 19004KT 10SM BKN009 BKN015 OVC019 23/21 A2989 RMK AO2 CIG 009V012 SLP123 $
KLIT - Little Rock, Arkansas
Updated: Tue, Apr-Tue-2020 1:53pm
Light rain, Mist, Overcast
Light rain, Mist, Overcast
 Wind from S
Wind: S 8 mph , 13 km/h
Temperature: 72°F , 22°C
Dew Point: 70°F , 21°C
Humidity: 94%
Barometer: 29.90 inHg , 1012.5 hPa
Summary: Light rain, Mist
Clouds: Overcast
Visibility: 3 miles , 5 km
Cloud details: Mostly cloudy 800 ft
Overcast 1500 ft
2020/04/07 18:53 KLIT 071853Z 19007KT 3SM -RA BR BKN008 OVC015 22/21 A2990 RMK AO2 RAB29 SLP126 P0000 T02170206
KSGT - Stuttgart, Arkansas
Updated: Tue, Apr-Tue-2020 1:56pm
Overcast
Overcast
 Wind from S
Wind: S 12 mph , 19 km/h
Temperature: 72°F , 22°C
Dew Point: 70°F , 21°C
Humidity: 94%
Barometer: 29.92 inHg , 1013.2 hPa
Clouds: Overcast
Visibility: 8 miles , 13 km
Cloud details: Overcast 600 ft
2020/04/07 18:56 KSGT 071856Z AUTO 19010KT 8SM OVC006 22/21 A2992 RMK AO2 SLP132 T02220206
 
KAWM - West Memphis, Arkansas
Updated: Tue, Apr-Tue-2020 1:53pm
Few Clouds
Few Clouds
 Wind from S
Wind: S 14 mph , 22 km/h
Temperature: 73°F , 23°C
Dew Point: 70°F , 21°C
Humidity: 89%
Barometer: 29.92 inHg , 1013.2 hPa
Clouds: Few Clouds
Visibility: 10 miles , 16 km
Cloud details: Few Clouds 7000 ft
2020/04/07 18:53 KAWM 071853Z AUTO 19012KT 10SM FEW070 23/21 A2992 RMK AO2 RAE1758B02E12 SLP127 P0000 T02280206
KFSM - Fort Smith, Arkansas
Updated: Tue, Apr-Tue-2020 1:53pm
Partly cloudy
Partly cloudy
 Wind from SW
Wind: SW 8 mph , 13 km/h
Temperature: 79°F , 26°C
Dew Point: 66°F , 19°C
Humidity: 65%
Barometer: 29.84 inHg , 1010.5 hPa
Clouds: Partly cloudy
Visibility: 10 miles , 16 km
Cloud details: Partly cloudy 2700 ft
2020/04/07 18:53 KFSM 071853Z 22007KT 10SM SCT027 26/19 A2984 RMK AO2 SLP101 T02560189
KMWT - Mount Ida, Arkansas
Updated: Tue, Apr-Tue-2020 1:53pm
Partly cloudy
Partly cloudy
 Wind from varies
Wind: varies 7 mph , 11 km/h
Temperature: 79°F , 26°C
Dew Point: 66°F , 19°C
Humidity: 65%
Barometer: 29.87 inHg , 1011.5 hPa
Clouds: Partly cloudy
Visibility: 10 miles , 16 km
Cloud details: Few Clouds 2300 ft
Partly cloudy 3500 ft
2020/04/07 18:53 KMWT 071853Z AUTO VRB06KT 10SM FEW023 SCT035 26/19 A2987 RMK AO2 SLP104 T02560189
 
KMEZ - Mena, Arkansas
Updated: Tue, Apr-Tue-2020 1:55pm
Partly cloudy
Partly cloudy
 Wind from WSW
Wind: WSW 6 mph , 9 km/h
Temperature: 81°F , 27°C
Heat Index: 85°F , 29°C
Dew Point: 70°F , 21°C
Humidity: 70%
Barometer: 29.89 inHg , 1012.2 hPa
Clouds: Partly cloudy
Visibility: 10 miles , 16 km
Cloud details: Partly cloudy 2900 ft
2020/04/07 18:55 KMEZ 071855Z AUTO 24005KT 10SM SCT029 27/21 A2989 RMK AO2
KHOT - Hot Springs, Arkansas
Updated: Tue, Apr-Tue-2020 1:53pm
Overcast
Overcast
 Wind from WSW
Wind: WSW 8 mph , 13 km/h
Temperature: 75°F , 24°C
Dew Point: 68°F , 20°C
Humidity: 78%
Barometer: 29.89 inHg , 1012.2 hPa
Clouds: Overcast
Visibility: 10 miles , 16 km
Cloud details: Mostly cloudy 1900 ft
Mostly cloudy 2500 ft
Overcast 3700 ft
2020/04/07 18:53 KHOT 071853Z AUTO 24007KT 10SM BKN019 BKN025 OVC037 24/20 A2989 RMK AO2 SLP117 T02440200
KADF - Arkadelphia, Arkansas
Updated: Tue, Apr-Tue-2020 1:56pm
Overcast
Overcast
 Wind from SW
Wind: SW 5 mph , 7 km/h
Temperature: 77°F , 25°C
Dew Point: 72°F , 22°C
Humidity: 83%
Barometer: 29.89 inHg , 1012.2 hPa
Clouds: Overcast
Visibility: 10 miles , 16 km
Cloud details: Mostly cloudy 1800 ft
Mostly cloudy 2300 ft
Overcast 3300 ft
2020/04/07 18:56 KADF 071856Z AUTO 22004KT 10SM BKN018 BKN023 OVC033 25/22 A2989 RMK AO2 SLP120 T02500222
 
KSGT - Stuttgart, Arkansas
Updated: Tue, Apr-Tue-2020 1:56pm
Overcast
Overcast
 Wind from S
Wind: S 12 mph , 19 km/h
Temperature: 72°F , 22°C
Dew Point: 70°F , 21°C
Humidity: 94%
Barometer: 29.92 inHg , 1013.2 hPa
Clouds: Overcast
Visibility: 8 miles , 13 km
Cloud details: Overcast 600 ft
2020/04/07 18:56 KSGT 071856Z AUTO 19010KT 8SM OVC006 22/21 A2992 RMK AO2 SLP132 T02220206
KPBF - Pine Bluff, Arkansas
Updated: Tue, Apr-Tue-2020 1:53pm
Light rain, Overcast
Light rain, Overcast
 Wind from varies
Wind: varies 6 mph , 9 km/h
Temperature: 73°F , 23°C
Dew Point: 70°F , 21°C
Humidity: 89%
Barometer: 29.92 inHg , 1013.2 hPa
Summary: Light rain
Clouds: Overcast
Visibility: 10 miles , 16 km
Cloud details: Mostly cloudy 800 ft
Mostly cloudy 1300 ft
Overcast 3500 ft
2020/04/07 18:53 KPBF 071853Z AUTO VRB05KT 10SM -RA BKN008 BKN013 OVC035 23/21 A2992 RMK AO2 RAB26E35B51 CIG 005V011 SLP129 P0000 T02330206
KSRC - Searcy, Arkansas
Updated: Tue, Apr-Tue-2020 1:56pm
Overcast
Overcast
 Wind from S
Wind: S 12 mph , 19 km/h, Gust: 20 mph , 31 km/h
Temperature: 75°F , 24°C
Dew Point: 70°F , 21°C
Humidity: 83%
Barometer: 29.90 inHg , 1012.5 hPa
Clouds: Overcast
Visibility: 10 miles , 16 km
Cloud details: Overcast 1800 ft
2020/04/07 18:56 KSRC 071856Z AUTO 19010G17KT 10SM OVC018 24/21 A2990 RMK AO2 SLP122 T02390211
 
KRUE - Russellville, Arkansas
Updated: Tue, Apr-Tue-2020 1:53pm
Clear
Clear
 Wind from S
Wind: S 6 mph , 9 km/h
Temperature: 75°F , 24°C
Dew Point: 66°F , 19°C
Humidity: 74%
Barometer: 29.86 inHg , 1011.2 hPa
Clouds: Clear
Visibility: 10 miles , 16 km
2020/04/07 18:53 KRUE 071853Z AUTO 18005KT 10SM CLR 24/19 A2986 RMK AO2 SLP106 T02390189
KCCA - Clinton, Arkansas
Updated: Tue, Apr-Tue-2020 1:55pm
Mostly cloudy
Mostly cloudy
 Wind from SW
Wind: SW 8 mph , 13 km/h, Gust: 15 mph , 24 km/h
Temperature: 79°F , 26°C
Dew Point: 66°F , 19°C
Humidity: 65%
Barometer: 29.86 inHg , 1011.2 hPa
Clouds: Mostly cloudy
Visibility: 10 miles , 16 km
Cloud details: Few Clouds 3500 ft
Few Clouds 4100 ft
Mostly cloudy 4900 ft
2020/04/07 18:55 KCCA 071855Z AUTO 22007G13KT 10SM FEW035 FEW041 BKN049 26/19 A2986 RMK AO2
KLLQ - Monticello, Arkansas
Updated: Tue, Apr-Tue-2020 2:00pm
Overcast
Overcast
 Wind from SW
Wind: SW 6 mph , 9 km/h
Temperature: 75°F , 24°C
Dew Point: 70°F , 21°C
Humidity: 83%
Barometer: 29.93 inHg , 1013.5 hPa
Clouds: Overcast
Visibility: 10 miles , 16 km
Cloud details: Mostly cloudy 1100 ft
Overcast 1600 ft
2020/04/07 19:00 KLLQ 071900Z AUTO 22005KT 10SM BKN011 OVC016 24/21 A2993 RMK AO2 T02390206
 
KCDH - Camden, Arkansas
Updated: Tue, Apr-Tue-2020 1:55pm
Mostly cloudy
Mostly cloudy
 Wind from WSW
Wind: WSW 7 mph , 11 km/h, Gust: 14 mph , 22 km/h
Temperature: 82°F , 28°C
Heat Index: 85°F , 29°C
Dew Point: 68°F , 20°C
Humidity: 62%
Barometer: 29.89 inHg , 1012.2 hPa
Clouds: Mostly cloudy
Visibility: 8 miles , 13 km
Cloud details: Few Clouds 2400 ft
Partly cloudy 2900 ft
Mostly cloudy 3600 ft
2020/04/07 18:55 KCDH 071855Z AUTO 25006G12KT 8SM FEW024 SCT029 BKN036 28/20 A2989 RMK AO2
KM19 - Newport, Arkansas
Updated: Tue, Apr-Tue-2020 1:56pm
Overcast
Overcast
 Wind from SSW
Wind: SSW 18 mph , 30 km/h
Temperature: 73°F , 23°C
Dew Point: 68°F , 20°C
Humidity: 83%
Barometer: 29.89 inHg , 1012.2 hPa
Clouds: Overcast
Visibility: 10 miles , 16 km
Cloud details: Overcast 1500 ft
2020/04/07 18:56 KM19 071856Z AUTO 20016KT 10SM OVC015 23/20 A2989 RMK AO2 SLP118 T02330200
KDEQ - De Queen, Arkansas
Updated: Tue, Apr-Tue-2020 1:53pm
Partly cloudy
Partly cloudy
 Wind from SW
Wind: SW 9 mph , 15 km/h
Temperature: 81°F , 27°C
Heat Index: 85°F , 29°C
Dew Point: 70°F , 21°C
Humidity: 70%
Barometer: 29.86 inHg , 1011.2 hPa
Clouds: Partly cloudy
Visibility: 10 miles , 16 km
Cloud details: Partly cloudy 2900 ft
2020/04/07 18:53 KDEQ 071853Z AUTO 22008KT 10SM SCT029 27/21 A2986 RMK AO1 SLP108 T02720206
 
KTXK - Texarkana, Arkansas
Updated: Tue, Apr-Tue-2020 1:53pm
Few Clouds
Few Clouds
 Wind from SW
Wind: SW 16 mph , 26 km/h, Gust: 22 mph , 35 km/h
Temperature: 82°F , 28°C
Heat Index: 86°F , 30°C
Dew Point: 70°F , 21°C
Humidity: 66%
Barometer: 29.89 inHg , 1012.2 hPa
Clouds: Few Clouds
Visibility: 10 miles , 16 km
Cloud details: Few Clouds 3300 ft
2020/04/07 18:53 KTXK 071853Z 23014G19KT 10SM FEW033 28/21 A2989
KELD - El Dorado, Arkansas
Updated: Tue, Apr-Tue-2020 2:07pm
Light rain, Mostly cloudy
Light rain, Mostly cloudy
 Wind from SSW
Wind: SSW 13 mph , 20 km/h, Gust: 17 mph , 28 km/h
Temperature: 82°F , 28°C
Heat Index: 86°F , 30°C
Dew Point: 72°F , 22°C
Humidity: 70%
Barometer: 29.91 inHg , 1012.9 hPa
Summary: Light rain
Clouds: Mostly cloudy
Visibility: 10 miles , 16 km
Cloud details: Mostly cloudy 2400 ft
Mostly cloudy 4100 ft
2020/04/07 19:07 KELD 071907Z AUTO 21011G15KT 10SM -RA BKN024 BKN041 28/22 A2991 RMK AO2 P0000 T02830222
KCSM - Clinton, Oklahoma
Updated: Tue, Apr-Tue-2020 1:53pm
Clear
Clear
 Wind from SSW
Wind: SSW 12 mph , 19 km/h
Temperature: 81°F , 27°C
Dew Point: 54°F , 12°C
Humidity: 39%
Barometer: 29.85 inHg , 1010.8 hPa
Clouds: Clear
Visibility: 10 miles , 16 km
2020/04/07 18:53 KCSM 071853Z 20010KT 10SM CLR 27/12 A2985 RMK AO2 SLP087 T02670122
 
KHBR - Hobart, Oklahoma
Updated: Tue, Apr-Tue-2020 1:53pm
Clear
Clear
 Wind from SSW
Wind: SSW 13 mph , 20 km/h
Temperature: 82°F , 28°C
Dew Point: 52°F , 11°C
Humidity: 35%
Barometer: 29.84 inHg , 1010.5 hPa
Clouds: Clear
Visibility: 10 miles , 16 km
2020/04/07 18:53 KHBR 071853Z AUTO 20011KT 10SM CLR 28/11 A2984 RMK AO2 SLP090 T02830106
KLTS - Altus Afb, Oklahoma
Updated: Tue, Apr-Tue-2020 1:56pm
Clear
Clear
 Wind from S
Wind: S 12 mph , 19 km/h
Temperature: 84°F , 29°C
Dew Point: 46°F , 8°C
Humidity: 27%
Barometer: 29.84 inHg , 1010.5 hPa
Clouds: Clear
Visibility: 10 miles , 16 km
2020/04/07 18:56 KLTS 071856Z AUTO 19010KT 10SM CLR 29/08 A2984 RMK AO2 SLP094 T02850082 $
KFSI - Fort Sill, Oklahoma
Updated: Tue, Apr-Tue-2020 12:56pm
Mostly cloudy
Mostly cloudy
 Wind from SW
Wind: SW 10 mph , 17 km/h
Temperature: 79°F , 26°C
Dew Point: 59°F , 15°C
Humidity: 51%
Barometer: 29.85 inHg , 1010.8 hPa
Clouds: Mostly cloudy
Visibility: 10 miles , 16 km
Cloud details: Mostly cloudy 19000 ft
2020/04/07 17:56 KFSI 071756Z AUTO 23009KT 10SM BKN190 26/15 A2985 RMK AO2 SLP101 T02620146 10262 20167 58012 $
 
KGAG - Gage, Oklahoma
Updated: Tue, Apr-Tue-2020 1:53pm
Clear
Clear
 Wind from W
Wind: W 9 mph , 15 km/h
Temperature: 91°F , 33°C
Dew Point: 25°F , -4°C
Humidity: 9%
Barometer: 29.81 inHg , 1009.5 hPa
Clouds: Clear
Visibility: 10 miles , 16 km
2020/04/07 18:53 KGAG 071853Z AUTO 28008KT 10SM CLR 33/M04 A2981 RMK AO2 SLP066 T03331039
KWWR - Woodward, Oklahoma
Updated: Tue, Apr-Tue-2020 1:55pm
Clear
Clear
 Wind from calm
Wind: Calm
Temperature: 86°F , 30°C
Dew Point: 34°F , 1°C
Humidity: 15%
Barometer: 29.84 inHg , 1010.5 hPa
Clouds: Clear
Visibility: 10 miles , 16 km
2020/04/07 18:55 KWWR 071855Z AUTO 00000KT 10SM CLR 30/01 A2984 RMK AO2
KLAW - Lawton, Oklahoma
Updated: Tue, Apr-Tue-2020 1:53pm
Clear
Clear
 Wind from SSW
Wind: SSW 12 mph , 19 km/h
Temperature: 82°F , 28°C
Heat Index: 81°F , 27°C
Dew Point: 55°F , 13°C
Humidity: 40%
Barometer: 29.84 inHg , 1010.5 hPa
Clouds: Clear
Visibility: 10 miles , 16 km
2020/04/07 18:53 KLAW 071853Z 21010KT 180V250 10SM CLR 28/13 A2984 RMK AO2 SLP097 T02780133
 
KOKC - Oklahoma City, Oklahoma
Updated: Tue, Apr-Tue-2020 1:52pm
Mostly cloudy
Mostly cloudy
 Wind from SSW
Wind: SSW 13 mph , 20 km/h
Temperature: 79°F , 26°C
Dew Point: 57°F , 14°C
Humidity: 48%
Barometer: 29.82 inHg , 1009.8 hPa
Clouds: Mostly cloudy
Visibility: 10 miles , 16 km
Cloud details: Mostly cloudy 15000 ft
Mostly cloudy 25000 ft
2020/04/07 18:52 KOKC 071852Z 21011KT 10SM BKN150 BKN250 26/14 A2982 RMK AO2 SLP086 T02610144
KEND - Enid/Vance Afb, Oklahoma
Updated: Tue, Apr-Tue-2020 1:56pm
Few Clouds
Few Clouds
 Wind from S
Wind: S 13 mph , 20 km/h
Temperature: 81°F , 27°C
Heat Index: 82°F , 28°C
Dew Point: 61°F , 16°C
Humidity: 51%
Barometer: 29.78 inHg , 1008.5 hPa
Clouds: Few Clouds
Visibility: 10 miles , 16 km
Cloud details: Few Clouds 16000 ft
2020/04/07 18:56 KEND 071856Z AUTO 19011KT 10SM FEW160 27/16 A2978 RMK AO2 SLP076 T02710164
KFDR - Frederick/Altus, Oklahoma
Updated: Tue, Apr-Tue-2020 1:53pm
Clear
Clear
 Wind from SW
Wind: SW 10 mph , 17 km/h
Temperature: 82°F , 28°C
Dew Point: 52°F , 11°C
Humidity: 35%
Barometer: 29.82 inHg , 1009.8 hPa
Clouds: Clear
Visibility: 10 miles , 16 km
2020/04/07 18:53 KFDR 071853Z AUTO 22009KT 10SM CLR 28/11 A2982 RMK AO2 SLP083 T02830111
 
KOUN - Norman, Oklahoma
Updated: Tue, Apr-Tue-2020 1:45pm
Clear
Clear
 Wind from S
Wind: S 14 mph , 22 km/h
Temperature: 79°F , 26°C
Dew Point: 57°F , 14°C
Humidity: 48%
Barometer: 29.81 inHg , 1009.5 hPa
Clouds: Clear
Visibility: 10 miles , 16 km
2020/04/07 18:45 KOUN 071845Z 18012KT 10SM CLR 26/14 A2981
KTIK - Tinker Afb, Oklahoma
Updated: Tue, Apr-Tue-2020 1:56pm
Few Clouds
Few Clouds
 Wind from SSW
Wind: SSW 15 mph , 24 km/h
Temperature: 79°F , 26°C
Dew Point: 59°F , 15°C
Humidity: 51%
Barometer: 29.82 inHg , 1009.8 hPa
Clouds: Few Clouds
Visibility: 10 miles , 16 km
Cloud details: Few Clouds 19000 ft
2020/04/07 18:56 KTIK 071856Z AUTO 20013KT 10SM FEW190 26/15 A2982 RMK AO2 SLP094 T02620146
KGOK - Guthrie, Oklahoma
Updated: Tue, Apr-Tue-2020 1:53pm
Clear
Clear
 Wind from SSW
Wind: SSW 14 mph , 22 km/h
Temperature: 82°F , 28°C
Heat Index: 82°F , 28°C
Dew Point: 57°F , 14°C
Humidity: 42%
Barometer: 29.79 inHg , 1008.8 hPa
Clouds: Clear
Visibility: 10 miles , 16 km
2020/04/07 18:53 KGOK 071853Z AUTO 21012KT 10SM CLR 28/14 A2979 RMK AO2 SLP079 T02780139
 
KSNL - Shawnee, Oklahoma
Updated: Tue, Apr-Tue-2020 1:55pm
Clear
Clear
 Wind from SW
Wind: SW 13 mph , 20 km/h
Temperature: 79°F , 26°C
Dew Point: 59°F , 15°C
Humidity: 51%
Barometer: 29.82 inHg , 1009.8 hPa
Clouds: Clear
Visibility: 10 miles , 16 km
2020/04/07 18:55 KSNL 071855Z AUTO 23011KT 10SM CLR 26/15 A2982 RMK AO2 T02620153
KCQB - Chandler, Oklahoma
Updated: Tue, Apr-Tue-2020 1:55pm
Clear
Clear
 Wind from SSW
Wind: SSW 12 mph , 19 km/h
Temperature: 81°F , 27°C
Heat Index: 82°F , 28°C
Dew Point: 63°F , 17°C
Humidity: 54%
Barometer: 29.81 inHg , 1009.5 hPa
Clouds: Clear
Visibility: 10 miles , 16 km
2020/04/07 18:55 KCQB 071855Z AUTO 21010KT 10SM CLR 27/17 A2981 RMK AO2 T02700170
KPVJ - Pauls Valley, Oklahoma
Updated: Tue, Apr-Tue-2020 1:55pm
Clear
Clear
 Wind from SSW
Wind: SSW 12 mph , 19 km/h, Gust: 17 mph , 28 km/h
Temperature: 82°F , 28°C
Heat Index: 82°F , 28°C
Dew Point: 61°F , 16°C
Humidity: 48%
Barometer: 29.84 inHg , 1010.5 hPa
Clouds: Clear
Visibility: 10 miles , 16 km
2020/04/07 18:55 KPVJ 071855Z AUTO 21010G15KT 10SM CLR 28/16 A2984 RMK AO2 T02780155
 
KEND - Enid/Vance Afb, Oklahoma
Updated: Tue, Apr-Tue-2020 1:56pm
Few Clouds
Few Clouds
 Wind from S
Wind: S 13 mph , 20 km/h
Temperature: 81°F , 27°C
Heat Index: 82°F , 28°C
Dew Point: 61°F , 16°C
Humidity: 51%
Barometer: 29.78 inHg , 1008.5 hPa
Clouds: Few Clouds
Visibility: 10 miles , 16 km
Cloud details: Few Clouds 16000 ft
2020/04/07 18:56 KEND 071856Z AUTO 19011KT 10SM FEW160 27/16 A2978 RMK AO2 SLP076 T02710164
KSWO - Stillwater, Oklahoma
Updated: Tue, Apr-Tue-2020 1:53pm
Clear
Clear
 Wind from S
Wind: S 15 mph , 24 km/h
Temperature: 84°F , 29°C
Heat Index: 84°F , 29°C
Dew Point: 61°F , 16°C
Humidity: 45%
Barometer: 29.78 inHg , 1008.5 hPa
Clouds: Clear
Visibility: 10 miles , 16 km
2020/04/07 18:53 KSWO 071853Z 19013KT 10SM CLR 29/16 A2978 RMK AO2 SLP072 T02890161
KFSI - Fort Sill, Oklahoma
Updated: Tue, Apr-Tue-2020 12:56pm
Mostly cloudy
Mostly cloudy
 Wind from SW
Wind: SW 10 mph , 17 km/h
Temperature: 79°F , 26°C
Dew Point: 59°F , 15°C
Humidity: 51%
Barometer: 29.85 inHg , 1010.8 hPa
Clouds: Mostly cloudy
Visibility: 10 miles , 16 km
Cloud details: Mostly cloudy 19000 ft
2020/04/07 17:56 KFSI 071756Z AUTO 23009KT 10SM BKN190 26/15 A2985 RMK AO2 SLP101 T02620146 10262 20167 58012 $
 
KDUC - Duncan, Oklahoma
Updated: Tue, Apr-Tue-2020 1:55pm
Clear
Clear
 Wind from SSW
Wind: SSW 13 mph , 20 km/h
Temperature: 81°F , 27°C
Heat Index: 82°F , 28°C
Dew Point: 61°F , 16°C
Humidity: 51%
Barometer: 29.87 inHg , 1011.5 hPa
Clouds: Clear
Visibility: 10 miles , 16 km
2020/04/07 18:55 KDUC 071855Z AUTO 21011KT 10SM CLR 27/16 A2987 RMK AO2 T02710157
KOKM - Okmulgee, Oklahoma
Updated: Tue, Apr-Tue-2020 1:55pm
Clear
Clear
 Wind from SSW
Wind: SSW 13 mph , 20 km/h, Gust: 20 mph , 31 km/h
Temperature: 82°F , 28°C
Heat Index: 84°F , 29°C
Dew Point: 64°F , 18°C
Humidity: 55%
Barometer: 29.80 inHg , 1009.1 hPa
Clouds: Clear
Visibility: 10 miles , 16 km
2020/04/07 18:55 KOKM 071855Z AUTO 21011G17KT 10SM CLR 28/18 A2980 RMK AO2 T02800177
KMLC - Mcalester, Oklahoma
Updated: Tue, Apr-Tue-2020 1:53pm
Clear
Clear
 Wind from SSW
Wind: SSW 17 mph , 28 km/h, Gust: 23 mph , 37 km/h
Temperature: 81°F , 27°C
Heat Index: 83°F , 28°C
Dew Point: 64°F , 18°C
Humidity: 58%
Barometer: 29.85 inHg , 1010.8 hPa
Clouds: Clear
Visibility: 10 miles , 16 km
2020/04/07 18:53 KMLC 071853Z AUTO 21015G20KT 10SM CLR 27/18 A2985 RMK AO2 SLP098 T02720178
 
KMKO - Muskogee, Oklahoma
Updated: Tue, Apr-Tue-2020 1:53pm
Few Clouds
Few Clouds
 Wind from SSE
Wind: SSE 13 mph , 20 km/h
Temperature: 79°F , 26°C
Dew Point: 66°F , 19°C
Humidity: 65%
Barometer: 29.83 inHg , 1010.2 hPa
Clouds: Few Clouds
Visibility: 10 miles , 16 km
Cloud details: Few Clouds 2600 ft
2020/04/07 18:53 KMKO 071853Z AUTO 16011KT 10SM FEW026 26/19 A2983 RMK AO2 SLP096 T02610189
KRVS - Tulsa, Oklahoma
Updated: Tue, Apr-Tue-2020 1:53pm
Clear
Clear
 Wind from SSW
Wind: SSW 14 mph , 22 km/h
Temperature: 82°F , 28°C
Heat Index: 84°F , 29°C
Dew Point: 64°F , 18°C
Humidity: 55%
Barometer: 29.79 inHg , 1008.8 hPa
Clouds: Clear
Visibility: 10 miles , 16 km
2020/04/07 18:53 KRVS 071853Z 20012KT 10SM CLR 28/18 A2979 RMK AO2 SLP089 T02780178
KGZL - Stigler, Oklahoma
Updated: Tue, Apr-Tue-2020 1:55pm
Clear
Clear
 Wind from SW
Wind: SW 8 mph , 13 km/h
Temperature: 81°F , 27°C
Heat Index: 83°F , 28°C
Dew Point: 66°F , 19°C
Humidity: 62%
Barometer: 29.84 inHg , 1010.5 hPa
Clouds: Clear
Visibility: 10 miles , 16 km
2020/04/07 18:55 KGZL 071855Z AUTO 22007KT 10SM CLR 27/19 A2984 RMK AO2
 
KADH - Ada, Oklahoma
Updated: Tue, Apr-Tue-2020 1:55pm
Clear
Clear
 Wind from SSW
Wind: SSW 12 mph , 19 km/h
Temperature: 81°F , 27°C
Heat Index: 82°F , 28°C
Dew Point: 63°F , 17°C
Humidity: 54%
Barometer: 29.85 inHg , 1010.8 hPa
Clouds: Clear
Visibility: 10 miles , 16 km
2020/04/07 18:55 KADH 071855Z AUTO 21010KT 10SM CLR 27/17 A2985 RMK AO2
KAQR - Atoka, Oklahoma
Updated: Tue, Apr-Tue-2020 1:55pm
Clear
Clear
 Wind from SSW
Wind: SSW 6 mph , 9 km/h
Temperature: 77°F , 25°C
Dew Point: 61°F , 16°C
Humidity: 57%
Barometer: 29.86 inHg , 1011.2 hPa
Clouds: Clear
Visibility: 10 miles , 16 km
2020/04/07 18:55 KAQR 071855Z AUTO 21005KT 10SM CLR 25/16 A2986 RMK AO2 T02450159 PWINO
KJSV - Sallisaw, Oklahoma
Updated: Tue, Apr-Tue-2020 1:55pm
Partly cloudy
Partly cloudy
 Wind from SSW
Wind: SSW 6 mph , 9 km/h
Temperature: 77°F , 25°C
Dew Point: 64°F , 18°C
Humidity: 65%
Barometer: 29.85 inHg , 1010.8 hPa
Clouds: Partly cloudy
Visibility: 10 miles , 16 km
Cloud details: Partly cloudy 2600 ft
2020/04/07 18:55 KJSV 071855Z AUTO 20005KT 10SM SCT026 25/18 A2985 RMK AO2
 
KTQH - Tahlequah, Oklahoma
Updated: Tue, Apr-Tue-2020 1:55pm
Clear
Clear
 Wind from SSW
Wind: SSW 12 mph , 19 km/h, Gust: 16 mph , 26 km/h
Temperature: 79°F , 26°C
Dew Point: 64°F , 18°C
Humidity: 61%
Barometer: 29.84 inHg , 1010.5 hPa
Clouds: Clear
Visibility: 10 miles , 16 km
2020/04/07 18:55 KTQH 071855Z AUTO 21010G14KT 10SM CLR 26/18 A2984 RMK AO2
KGCM - Claremore, Oklahoma
Updated: Tue, Apr-Tue-2020 1:55pm
Clear
Clear
 Wind from S
Wind: S 10 mph , 17 km/h, Gust: 17 mph , 28 km/h
Temperature: 79°F , 26°C
Dew Point: 55°F , 13°C
Humidity: 45%
Barometer: 29.81 inHg , 1009.5 hPa
Clouds: Clear
Visibility: 10 miles , 16 km
2020/04/07 18:55 KGCM 071855Z AUTO 18009G15KT 10SM CLR 26/13 A2981 RMK AO2
KRKR - Poteau, Oklahoma
Updated: Tue, Apr-Tue-2020 1:55pm
Clear
Clear
 Wind from SSW
Wind: SSW 7 mph , 11 km/h
Temperature: 77°F , 25°C
Dew Point: 64°F , 18°C
Humidity: 65%
Barometer: 29.84 inHg , 1010.5 hPa
Clouds: Clear
Visibility: 10 miles , 16 km
2020/04/07 18:55 KRKR 071855Z AUTO 21006KT 10SM CLR 25/18 A2984 RMK AO2
 
KGMJ - Grove, Oklahoma
Updated: Tue, Apr-Tue-2020 1:55pm
Clear
Clear
 Wind from S
Wind: S 9 mph , 15 km/h
Temperature: 81°F , 27°C
Heat Index: 82°F , 28°C
Dew Point: 63°F , 17°C
Humidity: 54%
Barometer: 29.82 inHg , 1009.8 hPa
Clouds: Clear
Visibility: 10 miles , 16 km
2020/04/07 18:55 KGMJ 071855Z AUTO 18008KT 10SM CLR 27/17 A2982 RMK AO2
K4O4 - Idabel, Oklahoma
Updated: Tue, Apr-Tue-2020 1:55pm
Partly cloudy
Partly cloudy
 Wind from SSW
Wind: SSW 8 mph , 13 km/h
Temperature: 81°F , 27°C
Heat Index: 83°F , 28°C
Dew Point: 64°F , 18°C
Humidity: 58%
Barometer: 29.86 inHg , 1011.2 hPa
Clouds: Partly cloudy
Visibility: 7 miles , 11 km
Cloud details: Partly cloudy 2900 ft
2020/04/07 18:55 K4O4 071855Z AUTO 21007KT 7SM SCT029 27/18 A2986 RMK AO2
KHHW - Hugo, Oklahoma
Updated: Wed, Jun-Wed-2019 9:18am
NOT Current
Clear
Clear
 Wind from WSW
Wind: WSW 8 mph , 13 km/h
Temperature: 70°F , 21°C
Dew Point: 61°F , 16°C
Humidity: 73%
Barometer: 30.00 inHg , 1015.9 hPa
Clouds: Clear
Visibility: 10 miles , 16 km
2019/06/12 14:18 KHHW 121418Z 24007KT 10SM CLR 21/16 A3000
 
KDUA - Durant, Oklahoma
Updated: Tue, Apr-Tue-2020 1:55pm
Clear
Clear
 Wind from SW
Wind: SW 7 mph , 11 km/h
Temperature: 82°F , 28°C
Heat Index: 84°F , 29°C
Dew Point: 64°F , 18°C
Humidity: 55%
Barometer: 29.88 inHg , 1011.9 hPa
Clouds: Clear
Visibility: 10 miles , 16 km
2020/04/07 18:55 KDUA 071855Z AUTO 22006KT 10SM CLR 28/18 A2988 RMK AO2
KSTJ - St. Joseph, Missouri
Updated: Tue, Apr-Tue-2020 1:53pm
Clear
Clear
 Wind from SW
Wind: SW 9 mph , 15 km/h, Gust: 18 mph , 30 km/h
Temperature: 81°F , 27°C
Heat Index: 81°F , 27°C
Dew Point: 59°F , 15°C
Humidity: 48%
Barometer: 29.74 inHg , 1007.1 hPa
Clouds: Clear
Visibility: 10 miles , 16 km
2020/04/07 18:53 KSTJ 071853Z 23008G16KT 10SM CLR 27/15 A2974 RMK AO2 SLP064 T02670150
KMCI - Kansas City/Intl, Missouri
Updated: Tue, Apr-Tue-2020 1:53pm
Partly cloudy
Partly cloudy
 Wind from SSW
Wind: SSW 14 mph , 22 km/h, Gust: 20 mph , 31 km/h
Temperature: 77°F , 25°C
Dew Point: 61°F , 16°C
Humidity: 57%
Barometer: 29.75 inHg , 1007.5 hPa
Clouds: Partly cloudy
Visibility: 10 miles , 16 km
Cloud details: Partly cloudy 25000 ft
2020/04/07 18:53 KMCI 071853Z 20012G17KT 10SM SCT250 25/16 A2975 RMK AO2 SLP065 T02500161
 
KMKC - Kansas City/Dntn, Missouri
Updated: Tue, Apr-Tue-2020 1:54pm
Clear
Clear
 Wind from SSW
Wind: SSW 13 mph , 20 km/h
Temperature: 77°F , 25°C
Dew Point: 61°F , 16°C
Humidity: 57%
Barometer: 29.74 inHg , 1007.1 hPa
Clouds: Clear
Visibility: 10 miles , 16 km
2020/04/07 18:54 KMKC 071854Z 21011KT 10SM CLR 25/16 A2974 RMK AO2 SLP066 T02500156
KCDJ - Chillicothe, Missouri
Updated: Tue, Apr-Tue-2020 1:52pm

 Wind from WSW
Wind: WSW 8 mph , 13 km/h
Temperature: 75°F , 24°C
Dew Point: 61°F , 16°C
Humidity: 61%
Barometer: 29.74 inHg , 1007.1 hPa
2020/04/07 18:52 KCDJ 071852Z AUTO 25007KT 24/16 A2974 RMK AO1 SLP060 T02440161
KIRK - Kirksville, Missouri
Updated: Tue, Apr-Tue-2020 1:55pm
Overcast
Overcast
 Wind from WSW
Wind: WSW 10 mph , 17 km/h, Gust: 22 mph , 35 km/h
Temperature: 75°F , 24°C
Dew Point: 61°F , 16°C
Humidity: 61%
Barometer: 29.74 inHg , 1007.1 hPa
Clouds: Overcast
Visibility: 10 miles , 16 km
Cloud details: Overcast 2900 ft
2020/04/07 18:55 KIRK 071855Z AUTO 24009G19KT 10SM OVC029 24/16 A2974 RMK AO2 SLP067 T02390161
 
KSZL - Whiteman Afb, Missouri
Updated: Tue, Apr-Tue-2020 1:56pm
Mostly cloudy
Mostly cloudy
 Wind from SSW
Wind: SSW 15 mph , 24 km/h, Gust: 21 mph , 33 km/h
Temperature: 75°F , 24°C
Dew Point: 68°F , 20°C
Humidity: 78%
Barometer: 29.73 inHg , 1006.8 hPa
Clouds: Mostly cloudy
Visibility: 10 miles , 16 km
Cloud details: Mostly cloudy 2400 ft
2020/04/07 18:56 KSZL 071856Z 20013G18KT 10SM BKN024 24/20 A2973 RMK AO2A SLP065 T02400197
KDMO - Sedalia, Missouri
Updated: Tue, Apr-Tue-2020 1:53pm
Partly cloudy
Partly cloudy
 Wind from SW
Wind: SW 10 mph , 17 km/h
Temperature: 75°F , 24°C
Dew Point: 64°F , 18°C
Humidity: 69%
Barometer: 29.78 inHg , 1008.5 hPa
Clouds: Partly cloudy
Visibility: 10 miles , 16 km
Cloud details: Partly cloudy 2300 ft
2020/04/07 18:53 KDMO 071853Z AUTO 23009KT 10SM SCT023 24/18 A2978 RMK AO2 SLP078 T02390178
KGLY - Clinton, Missouri
Updated: Tue, Apr-Tue-2020 1:55pm
Few Clouds
Few Clouds
 Wind from WSW
Wind: WSW 12 mph , 19 km/h
Temperature: 77°F , 25°C
Dew Point: 64°F , 18°C
Humidity: 65%
Barometer: 29.78 inHg , 1008.5 hPa
Clouds: Few Clouds
Visibility: 10 miles , 16 km
Cloud details: Few Clouds 2700 ft
2020/04/07 18:55 KGLY 071855Z AUTO 25010KT 10SM FEW027 25/18 A2978 RMK AO2
 
KCOU - Columbia, Missouri
Updated: Tue, Apr-Tue-2020 1:54pm
Partly cloudy
Partly cloudy
 Wind from WSW
Wind: WSW 13 mph , 20 km/h
Temperature: 77°F , 25°C
Dew Point: 63°F , 17°C
Humidity: 61%
Barometer: 29.77 inHg , 1008.1 hPa
Clouds: Partly cloudy
Visibility: 10 miles , 16 km
Cloud details: Partly cloudy 3000 ft
2020/04/07 18:54 KCOU 071854Z 25011KT 10SM SCT030 25/17 A2977 RMK AO2 SLP073 T02500172
KJEF - Jefferson City, Missouri
Updated: Tue, Apr-Tue-2020 1:53pm
Clear
Clear
 Wind from SSW
Wind: SSW 7 mph , 11 km/h
Temperature: 81°F , 27°C
Heat Index: 82°F , 28°C
Dew Point: 63°F , 17°C
Humidity: 54%
Barometer: 29.77 inHg , 1008.1 hPa
Clouds: Clear
Visibility: 10 miles , 16 km
2020/04/07 18:53 KJEF 071853Z 20006KT 10SM CLR 27/17 A2977 RMK AO2 SLP066 T02670167
KVIH - Vichy/Rolla, Missouri
Updated: Tue, Apr-Tue-2020 1:53pm
Clear
Clear
 Wind from SSW
Wind: SSW 12 mph , 19 km/h
Temperature: 81°F , 27°C
Heat Index: 82°F , 28°C
Dew Point: 63°F , 17°C
Humidity: 54%
Barometer: 29.80 inHg , 1009.1 hPa
Clouds: Clear
Visibility: 10 miles , 16 km
2020/04/07 18:53 KVIH 071853Z AUTO 20010KT 10SM CLR 27/17 A2980 RMK AO2 SLP081 T02670167
 
KTBN - Fort Leonard Wood, Missouri
Updated: Tue, Apr-Tue-2020 12:56pm
Clear
Clear
 Wind from SSW
Wind: SSW 12 mph , 19 km/h
Temperature: 79°F , 26°C
Dew Point: 61°F , 16°C
Humidity: 54%
Barometer: 29.82 inHg , 1009.8 hPa
Clouds: Clear
Visibility: 10 miles , 16 km
2020/04/07 17:56 KTBN 071756Z AUTO 20010KT 10SM CLR 26/16 A2982 RMK AO2 SLP091 T02630162 10263 20134 58019
KJLN - Joplin, Missouri
Updated: Tue, Apr-Tue-2020 1:53pm
Clear
Clear
 Wind from S
Wind: S 15 mph , 24 km/h
Temperature: 79°F , 26°C
Dew Point: 64°F , 18°C
Humidity: 61%
Barometer: 29.80 inHg , 1009.1 hPa
Clouds: Clear
Visibility: 10 miles , 16 km
2020/04/07 18:53 KJLN 071853Z 19013KT 10SM CLR 26/18 A2980 RMK AO2 SLP081 T02610178
KHFJ - Monett, Missouri
Updated: Tue, Apr-Tue-2020 1:55pm
Partly cloudy
Partly cloudy
 Wind from SSW
Wind: SSW 14 mph , 22 km/h, Gust: 20 mph , 31 km/h
Temperature: 75°F , 24°C
Dew Point: 64°F , 18°C
Humidity: 69%
Barometer: 29.83 inHg , 1010.2 hPa
Clouds: Partly cloudy
Visibility: 10 miles , 16 km
Cloud details: Partly cloudy 2400 ft
2020/04/07 18:55 KHFJ 071855Z AUTO 20012G17KT 10SM SCT024 24/18 A2983 RMK AO2
 
KSGF - Springfield, Missouri
Updated: Tue, Apr-Tue-2020 1:52pm
Partly cloudy
Partly cloudy
 Wind from SSW
Wind: SSW 12 mph , 19 km/h
Temperature: 77°F , 25°C
Dew Point: 64°F , 18°C
Humidity: 65%
Barometer: 29.81 inHg , 1009.5 hPa
Clouds: Partly cloudy
Visibility: 10 miles , 16 km
Cloud details: Partly cloudy 2900 ft
2020/04/07 18:52 KSGF 071852Z AUTO 21010KT 10SM SCT029 25/18 A2981 RMK AO2 SLP085 T02500183
KBBG - Branson, Missouri
Updated: Tue, Apr-Tue-2020 1:45pm
Mostly cloudy
Mostly cloudy
 Wind from S
Wind: S 9 mph , 15 km/h, Gust: 16 mph , 26 km/h
Temperature: 77°F , 25°C
Dew Point: 63°F , 17°C
Humidity: 61%
Barometer: 29.86 inHg , 1011.2 hPa
Clouds: Mostly cloudy
Visibility: 10 miles , 16 km
Cloud details: Mostly cloudy 3500 ft
Mostly cloudy 16000 ft
2020/04/07 18:45 KBBG 071845Z 19008G14KT 10SM BKN035 BKN160 25/17 A2986
KUNO - West Plains, Missouri
Updated: Tue, Apr-Tue-2020 1:53pm
Overcast
Overcast
 Wind from SSW
Wind: SSW 9 mph , 15 km/h
Temperature: 79°F , 26°C
Dew Point: 63°F , 17°C
Humidity: 58%
Barometer: 29.86 inHg , 1011.2 hPa
Clouds: Overcast
Visibility: 10 miles , 16 km
Cloud details: Overcast 3400 ft
2020/04/07 18:53 KUNO 071853Z AUTO 20008KT 10SM OVC034 26/17 A2986 RMK AO2 SLP100 T02560172
 
KFAM - Farmington, Missouri
Updated: Tue, Apr-Tue-2020 1:56pm
Clear
Clear
 Wind from SSE
Wind: SSE 10 mph , 17 km/h, Gust: 18 mph , 30 km/h
Temperature: 81°F , 27°C
Heat Index: 83°F , 28°C
Dew Point: 64°F , 18°C
Humidity: 58%
Barometer: 29.82 inHg , 1009.8 hPa
Clouds: Clear
Visibility: 10 miles , 16 km
2020/04/07 18:56 KFAM 071856Z AUTO 16009G16KT 10SM CLR 27/18 A2982 RMK AO2 SLP100 T02720178
KCGI - Cape Girardeau, Missouri
Updated: Tue, Apr-Tue-2020 1:53pm
Mostly cloudy
Mostly cloudy
 Wind from SW
Wind: SW 16 mph , 26 km/h, Gust: 24 mph , 39 km/h
Temperature: 77°F , 25°C
Dew Point: 64°F , 18°C
Humidity: 65%
Barometer: 29.83 inHg , 1010.2 hPa
Clouds: Mostly cloudy
Visibility: 10 miles , 16 km
Cloud details: Mostly cloudy 3800 ft
2020/04/07 18:53 KCGI 071853Z 22014G21KT 10SM BKN038 25/18 A2983 RMK AO2 SLP100 T02500183
KSTL - St. Louis, Missouri
Updated: Tue, Apr-Tue-2020 1:51pm
Mostly cloudy
Mostly cloudy
 Wind from SW
Wind: SW 15 mph , 24 km/h, Gust: 23 mph , 37 km/h
Temperature: 81°F , 27°C
Heat Index: 82°F , 28°C
Dew Point: 61°F , 16°C
Humidity: 51%
Barometer: 29.77 inHg , 1008.1 hPa
Clouds: Mostly cloudy
Visibility: 10 miles , 16 km
Cloud details: Mostly cloudy 25000 ft
2020/04/07 18:51 KSTL 071851Z 23013G20KT 10SM BKN250 27/16 A2977 RMK AO2 SLP069 T02670156
 
KPOF - Popular Bluff, Missouri
Updated: Tue, Apr-Tue-2020 1:53pm
Mostly cloudy
Mostly cloudy
 Wind from SSW
Wind: SSW 15 mph , 24 km/h, Gust: 24 mph , 39 km/h
Temperature: 79°F , 26°C
Dew Point: 64°F , 18°C
Humidity: 61%
Barometer: 29.84 inHg , 1010.5 hPa
Clouds: Mostly cloudy
Visibility: 10 miles , 16 km
Cloud details: Few Clouds 2800 ft
Partly cloudy 3500 ft
Mostly cloudy 4700 ft
2020/04/07 18:53 KPOF 071853Z AUTO 21013G21KT 10SM FEW028 SCT035 BKN047 26/18 A2984 RMK AO2 SLP102 T02560183 $
KSET - St. Charles, Missouri
Updated: Tue, Apr-Tue-2020 1:54pm
Clear
Clear
 Wind from SW
Wind: SW 13 mph , 20 km/h
Temperature: 81°F , 27°C
Heat Index: 82°F , 28°C
Dew Point: 61°F , 16°C
Humidity: 51%
Barometer: 29.75 inHg , 1007.5 hPa
Clouds: Clear
Visibility: 10 miles , 16 km
2020/04/07 18:54 KSET 071854Z AUTO 23011KT 10SM CLR 27/16 A2975 RMK AO2 SLP070 T02670156
KGLD - Goodland, Kansas
Updated: Tue, Apr-Tue-2020 1:53pm
Clear
Clear
 Wind from N
Wind: N 12 mph , 19 km/h
Temperature: 75°F , 24°C
Dew Point: 23°F , -5°C
Humidity: 14%
Barometer: 29.92 inHg , 1013.2 hPa
Clouds: Clear
Visibility: 10 miles , 16 km
2020/04/07 18:53 KGLD 071853Z AUTO 01010KT 10SM CLR 24/M05 A2992 RMK AO2 SLP099 T02441050 PWINO PNO $
 
KHLC - Hill City, Kansas
Updated: Tue, Apr-Tue-2020 1:53pm
Clear
Clear
 Wind from NNW
Wind: NNW 15 mph , 24 km/h, Gust: 23 mph , 37 km/h
Temperature: 82°F , 28°C
Dew Point: 30°F , -1°C
Humidity: 15%
Barometer: 29.84 inHg , 1010.5 hPa
Clouds: Clear
Visibility: 10 miles , 16 km
2020/04/07 18:53 KHLC 071853Z AUTO 34013G20KT 10SM CLR 28/M01 A2984 RMK AO2 PK WND 02029/1815 SLP091 T02831011
KHYS - Hays Muni, Kansas
Updated: Tue, Apr-Tue-2020 1:56pm
Clear
Clear
 Wind from N
Wind: N 22 mph , 35 km/h, Gust: 28 mph , 44 km/h
Temperature: 84°F , 29°C
Dew Point: 32°F , 0°C
Humidity: 15%
Barometer: 29.81 inHg , 1009.5 hPa
Clouds: Clear
Visibility: 10 miles , 16 km
2020/04/07 18:56 KHYS 071856Z AUTO 01019G24KT 10SM CLR 29/00 A2981 RMK AO2 PK WND 02026/1818 SLP079 T02890000
KRSL - Russell, Kansas
Updated: Tue, Apr-Tue-2020 1:53pm
Clear
Clear
 Wind from N
Wind: N 15 mph , 24 km/h, Gust: 31 mph , 50 km/h
Temperature: 84°F , 29°C
Dew Point: 34°F , 1°C
Humidity: 16%
Barometer: 29.78 inHg , 1008.5 hPa
Clouds: Clear
Visibility: 10 miles , 16 km
2020/04/07 18:53 KRSL 071853Z AUTO 01013G27KT 10SM CLR 29/01 A2978 RMK AO2 PK WND 02027/1845 SLP070 T02940011
 
KGBD - Great Bend, Kansas
Updated: Tue, Apr-Tue-2020 1:56pm

 Wind from NE
Wind: NE 17 mph , 28 km/h
Temperature: 82°F , 28°C
Dew Point: 45°F , 7°C
Humidity: 26%
Barometer: 29.82 inHg , 1009.8 hPa
Visibility: 10 miles , 16 km
2020/04/07 18:56 KGBD 071856Z AUTO 04015KT 10SM 28/07 A2982 RMK AO2 SLP081 T02780072
KDDC - Dodge City, Kansas
Updated: Tue, Apr-Tue-2020 1:52pm
Clear
Clear
 Wind from NE
Wind: NE 17 mph , 28 km/h, Gust: 25 mph , 41 km/h
Temperature: 84°F , 29°C
Dew Point: 37°F , 3°C
Humidity: 19%
Barometer: 29.84 inHg , 1010.5 hPa
Clouds: Clear
Visibility: 10 miles , 16 km
2020/04/07 18:52 KDDC 071852Z AUTO 04015G22KT 10SM CLR 29/03 A2984 RMK AO2 PK WND 02026/1806 SLP076 T02890033
KPTT - Pratt Indust, Kansas
Updated: Tue, Apr-Tue-2020 1:55pm
Clear
Clear
 Wind from NNE
Wind: NNE 10 mph , 17 km/h, Gust: 16 mph , 26 km/h
Temperature: 81°F , 27°C
Dew Point: 37°F , 3°C
Humidity: 21%
Barometer: 29.80 inHg , 1009.1 hPa
Clouds: Clear
Visibility: 10 miles , 16 km
2020/04/07 18:55 KPTT 071855Z AUTO 02009G14KT 10SM CLR 27/03 A2980 RMK AO2 T02700030
 
KSLN - Salina, Kansas
Updated: Tue, Apr-Tue-2020 1:53pm
Clear
Clear
 Wind from varies
Wind: varies 3 mph , 6 km/h
Temperature: 79°F , 26°C
Dew Point: 52°F , 11°C
Humidity: 39%
Barometer: 29.78 inHg , 1008.5 hPa
Clouds: Clear
Visibility: 10 miles , 16 km
2020/04/07 18:53 KSLN 071853Z VRB03KT 10SM CLR 26/11 A2978 RMK AO2 SLP075 T02610111
KHUT - Hutchinson, Kansas
Updated: Tue, Apr-Tue-2020 1:52pm
Clear
Clear
 Wind from SW
Wind: SW 5 mph , 7 km/h
Temperature: 79°F , 26°C
Dew Point: 54°F , 12°C
Humidity: 42%
Barometer: 29.78 inHg , 1008.5 hPa
Clouds: Clear
Visibility: 10 miles , 16 km
2020/04/07 18:52 KHUT 071852Z 23004KT 10SM CLR 26/12 A2978 RMK AO2 SLP066 T02560117
KGCK - Garden City, Kansas
Updated: Tue, Apr-Tue-2020 1:54pm
Clear
Clear
 Wind from NNE
Wind: NNE 18 mph , 30 km/h, Gust: 28 mph , 44 km/h
Temperature: 82°F , 28°C
Dew Point: 27°F , -3°C
Humidity: 13%
Barometer: 29.86 inHg , 1011.2 hPa
Clouds: Clear
Visibility: 10 miles , 16 km
2020/04/07 18:54 KGCK 071854Z 03016G24KT 10SM CLR 28/M03 A2986 RMK AO2 PK WND 04027/1800 SLP082 T02781028
 
KP28 - Medicine Lodge, Kansas
Updated: Tue, Apr-Tue-2020 1:56pm

 Wind from varies
Wind: varies 5 mph , 7 km/h
Temperature: 82°F , 28°C
Dew Point: 45°F , 7°C
Humidity: 26%
Barometer: 29.77 inHg , 1008.1 hPa
2020/04/07 18:56 KP28 071856Z AUTO VRB04KT 28/07 A2977 RMK AO1 SLP067 T02780072
KICT - Wichita, Kansas
Updated: Tue, Apr-Tue-2020 1:53pm
Few Clouds
Few Clouds
 Wind from SW
Wind: SW 9 mph , 15 km/h, Gust: 17 mph , 28 km/h
Temperature: 77°F , 25°C
Dew Point: 61°F , 16°C
Humidity: 57%
Barometer: 29.78 inHg , 1008.5 hPa
Clouds: Few Clouds
Visibility: 10 miles , 16 km
Cloud details: Few Clouds 25000 ft
2020/04/07 18:53 KICT 071853Z 22008G15KT 10SM FEW250 25/16 A2978 RMK AO2 SLP073 T02500161
KRSL - Russell, Kansas
Updated: Tue, Apr-Tue-2020 1:53pm
Clear
Clear
 Wind from N
Wind: N 15 mph , 24 km/h, Gust: 31 mph , 50 km/h
Temperature: 84°F , 29°C
Dew Point: 34°F , 1°C
Humidity: 16%
Barometer: 29.78 inHg , 1008.5 hPa
Clouds: Clear
Visibility: 10 miles , 16 km
2020/04/07 18:53 KRSL 071853Z AUTO 01013G27KT 10SM CLR 29/01 A2978 RMK AO2 PK WND 02027/1845 SLP070 T02940011
 
KMHK - Manhattan, Kansas
Updated: Tue, Apr-Tue-2020 1:52pm
Clear
Clear
 Wind from SSW
Wind: SSW 6 mph , 9 km/h
Temperature: 82°F , 28°C
Heat Index: 81°F , 27°C
Dew Point: 55°F , 13°C
Humidity: 40%
Barometer: 29.75 inHg , 1007.5 hPa
Clouds: Clear
Visibility: 10 miles , 16 km
2020/04/07 18:52 KMHK 071852Z 21005KT 10SM CLR 28/13 A2975 RMK AO2 SLP064 T02780133
KEMP - Emporia, Kansas
Updated: Tue, Apr-Tue-2020 1:53pm
Clear
Clear
 Wind from S
Wind: S 9 mph , 15 km/h, Gust: 22 mph , 35 km/h
Temperature: 79°F , 26°C
Dew Point: 61°F , 16°C
Humidity: 54%
Barometer: 29.76 inHg , 1007.8 hPa
Clouds: Clear
Visibility: 10 miles , 16 km
2020/04/07 18:53 KEMP 071853Z AUTO 17008G19KT 10SM CLR 26/16 A2976 RMK AO2 SLP072 T02560156
KTOP - Topeka, Kansas
Updated: Tue, Apr-Tue-2020 1:53pm
Clear
Clear
 Wind from SW
Wind: SW 7 mph , 11 km/h
Temperature: 79°F , 26°C
Dew Point: 57°F , 14°C
Humidity: 48%
Barometer: 29.74 inHg , 1007.1 hPa
Clouds: Clear
Visibility: 10 miles , 16 km
2020/04/07 18:53 KTOP 071853Z 22006KT 10SM CLR 26/14 A2974 RMK AO2 SLP064 T02610144
 
KCNU - Chanute, Kansas
Updated: Tue, Apr-Tue-2020 1:52pm
Few Clouds
Few Clouds
 Wind from SSW
Wind: SSW 14 mph , 22 km/h
Temperature: 79°F , 26°C
Dew Point: 64°F , 18°C
Humidity: 61%
Barometer: 29.78 inHg , 1008.5 hPa
Clouds: Few Clouds
Visibility: 10 miles , 16 km
Cloud details: Few Clouds 2600 ft
2020/04/07 18:52 KCNU 071852Z AUTO 20012KT 10SM FEW026 26/18 A2978 RMK AO2 SLP075 T02560178
KLWC - Lawrence, Kansas
Updated: Tue, Apr-Tue-2020 1:52pm
Clear
Clear
 Wind from W
Wind: W 12 mph , 19 km/h
Temperature: 79°F , 26°C
Dew Point: 61°F , 16°C
Humidity: 54%
Barometer: 29.76 inHg , 1007.8 hPa
Clouds: Clear
Visibility: 10 miles , 16 km
2020/04/07 18:52 KLWC 071852Z AUTO 26010KT 10SM CLR 26/16 A2976 RMK AO2 SLP069 T02610156
KPPF - Parsons, Kansas
Updated: Tue, Apr-Tue-2020 1:12pm
Partly cloudy
Partly cloudy
 Wind from S
Wind: S 13 mph , 20 km/h, Gust: 21 mph , 33 km/h
Temperature: 79°F , 26°C
Dew Point: 64°F , 18°C
Humidity: 61%
Barometer: 29.80 inHg , 1009.1 hPa
Clouds: Partly cloudy
Visibility: 10 miles , 16 km
Cloud details: Partly cloudy 2400 ft
2020/04/07 18:12 KPPF 071812Z AUTO 19011G18KT 10SM SCT024 26/18 A2980 RMK AO2 T02560183
 
KIDP - Independence, Kansas
Updated: Tue, Apr-Tue-2020 1:55pm
Clear
Clear
 Wind from S
Wind: S 10 mph , 17 km/h, Gust: 18 mph , 30 km/h
Temperature: 81°F , 27°C
Heat Index: 83°F , 28°C
Dew Point: 66°F , 19°C
Humidity: 62%
Barometer: 29.78 inHg , 1008.5 hPa
Clouds: Clear
Visibility: 10 miles , 16 km
2020/04/07 18:55 KIDP 071855Z AUTO 18009G16KT 10SM CLR 27/19 A2978 RMK AO2 T02730189
KOJC - Olathe, Kansas
Updated: Tue, Apr-Tue-2020 1:53pm
Few Clouds
Few Clouds
 Wind from SW
Wind: SW 13 mph , 20 km/h
Temperature: 73°F , 23°C
Dew Point: 61°F , 16°C
Humidity: 65%
Barometer: 29.77 inHg , 1008.1 hPa
Clouds: Few Clouds
Visibility: 10 miles , 16 km
Cloud details: Few Clouds 2700 ft
2020/04/07 18:53 KOJC 071853Z 23011KT 10SM FEW027 23/16 A2977 RMK AO2 SLP073 T02280156
KCFV - Coffeyville, Kansas
Updated: Tue, Apr-Tue-2020 1:52pm
Few Clouds
Few Clouds
 Wind from S
Wind: S 17 mph , 28 km/h, Gust: 23 mph , 37 km/h
Temperature: 81°F , 27°C
Heat Index: 83°F , 28°C
Dew Point: 64°F , 18°C
Humidity: 58%
Barometer: 29.77 inHg , 1008.1 hPa
Clouds: Few Clouds
Visibility: 10 miles , 16 km
Cloud details: Few Clouds 2900 ft
2020/04/07 18:52 KCFV 071852Z AUTO 18015G20KT 10SM FEW029 27/18 A2977 RMK AO2 SLP075 T02670183
 
KPTS - Pittsburg, Kansas
Updated: Tue, Apr-Tue-2020 1:55pm
Partly cloudy
Partly cloudy
 Wind from SSW
Wind: SSW 14 mph , 22 km/h, Gust: 17 mph , 28 km/h
Temperature: 77°F , 25°C
Dew Point: 66°F , 19°C
Humidity: 69%
Barometer: 29.79 inHg , 1008.8 hPa
Clouds: Partly cloudy
Visibility: 10 miles , 16 km
Cloud details: Partly cloudy 2700 ft
2020/04/07 18:55 KPTS 071855Z AUTO 21012G15KT 10SM SCT027 25/19 A2979 RMK AO2 T02470192
KLGA - New York City, New York
Updated: Tue, Apr-Tue-2020 1:51pm
Mostly cloudy
Mostly cloudy
 Wind from SW
Wind: SW 13 mph , 20 km/h
Temperature: 64°F , 18°C
Dew Point: 27°F , -3°C
Humidity: 24%
Barometer: 29.83 inHg , 1010.2 hPa
Clouds: Mostly cloudy
Visibility: 10 miles , 16 km
Cloud details: Few Clouds 5000 ft
Partly cloudy 10000 ft
Mostly cloudy 25000 ft
2020/04/07 18:51 KLGA 071851Z 23011KT 10SM FEW050 SCT100 BKN250 18/M03 A2983 RMK AO2 SLP100 T01831028
KCLT - Charlotte, North Carolina
Updated: Tue, Apr-Tue-2020 1:52pm
Mostly cloudy
Mostly cloudy
 Wind from W
Wind: W 8 mph , 13 km/h
Temperature: 81°F , 27°C
Dew Point: 52°F , 11°C
Humidity: 37%
Barometer: 29.94 inHg , 1013.9 hPa
Clouds: Mostly cloudy
Visibility: 10 miles , 16 km
Cloud details: Partly cloudy 6000 ft
Mostly cloudy 11000 ft
Mostly cloudy 14000 ft
Mostly cloudy 25000 ft
2020/04/07 18:52 KCLT 071852Z 27007KT 10SM SCT060 BKN110 BKN140 BKN250 27/11 A2994 RMK AO2 SLP133 T02720111
 
KATL - Atlanta, Georgia
Updated: Tue, Apr-Tue-2020 1:52pm
Overcast
Overcast
 Wind from SW
Wind: SW 13 mph , 20 km/h
Temperature: 75°F , 24°C
Dew Point: 57°F , 14°C
Humidity: 54%
Barometer: 30.04 inHg , 1017.3 hPa
Clouds: Overcast
Visibility: 10 miles , 16 km
Cloud details: Few Clouds 3600 ft
Mostly cloudy 13000 ft
Overcast 18000 ft
2020/04/07 18:52 KATL 071852Z 23011KT 10SM FEW036 BKN130 OVC180 24/14 A3004 RMK AO2 SLP166 VIRGA OHD-ALQDS CB DSNT N NE ACC NE T02390144
KORL - Orlando, Florida
Updated: Tue, Apr-Tue-2020 1:53pm
Clear
Clear
 Wind from WSW
Wind: WSW 7 mph , 11 km/h
Temperature: 84°F , 29°C
Heat Index: 83°F , 28°C
Dew Point: 57°F , 14°C
Humidity: 40%
Barometer: 30.04 inHg , 1017.3 hPa
Clouds: Clear
Visibility: 10 miles , 16 km
2020/04/07 18:53 KORL 071853Z 25006KT 10SM CLR 29/14 A3004 RMK AO2 SLP175 T02940139
KMSP - Minneapolis, Minnesota
Updated: Tue, Apr-Tue-2020 1:53pm
Partly cloudy
Partly cloudy
 Wind from varies
Wind: varies 5 mph , 7 km/h
Temperature: 61°F , 16°C
Dew Point: 52°F , 11°C
Humidity: 72%
Barometer: 29.67 inHg , 1004.7 hPa
Clouds: Partly cloudy
Visibility: 7 miles , 11 km
Cloud details: Partly cloudy 1300 ft
2020/04/07 18:53 KMSP 071853Z VRB04KT 7SM SCT013 16/11 A2967 RMK AO2 SLP049 T01610111
 
KORD - Chicago, Illinois
Updated: Tue, Apr-Tue-2020 1:51pm
Partly cloudy
Partly cloudy
 Wind from SW
Wind: SW 16 mph , 26 km/h, Gust: 25 mph , 41 km/h
Temperature: 75°F , 24°C
Dew Point: 59°F , 15°C
Humidity: 57%
Barometer: 29.66 inHg , 1004.4 hPa
Clouds: Partly cloudy
Visibility: 10 miles , 16 km
Cloud details: Partly cloudy 3200 ft
2020/04/07 18:51 KORD 071851Z 22014G22KT 10SM SCT032 24/15 A2966 RMK AO2 SLP043 T02440150 $
KDFW - Dallas/Ft Worth, Texas
Updated: Tue, Apr-Tue-2020 1:53pm
Mostly cloudy
Mostly cloudy
 Wind from S
Wind: S 12 mph , 19 km/h
Temperature: 86°F , 30°C
Heat Index: 88°F , 31°C
Dew Point: 66°F , 19°C
Humidity: 52%
Barometer: 29.87 inHg , 1011.5 hPa
Clouds: Mostly cloudy
Visibility: 10 miles , 16 km
Cloud details: Few Clouds 3500 ft
Mostly cloudy 24000 ft
2020/04/07 18:53 KDFW 071853Z 19010KT 10SM FEW035 BKN240 30/19 A2987 RMK AO2 SLP106 T03000189
KHOU - Houston, Texas
Updated: Tue, Apr-Tue-2020 1:53pm
Overcast
Overcast
 Wind from WSW
Wind: WSW 9 mph , 15 km/h
Temperature: 86°F , 30°C
Heat Index: 91°F , 33°C
Dew Point: 70°F , 21°C
Humidity: 59%
Barometer: 29.96 inHg , 1014.6 hPa
Clouds: Overcast
Visibility: 10 miles , 16 km
Cloud details: Mostly cloudy 3000 ft
Mostly cloudy 9000 ft
Overcast 25000 ft
2020/04/07 18:53 KHOU 071853Z 24008KT 10SM BKN030 BKN090 OVC250 30/21 A2996 RMK AO2 SLP149 T03000211
 
KDEN - Denver, Colorado
Updated: Tue, Apr-Tue-2020 1:53pm
Few Clouds
Few Clouds
 Wind from calm
Wind: Calm
Temperature: 70°F , 21°C
Dew Point: 18°F , -8°C
Humidity: 13%
Barometer: 29.97 inHg , 1014.9 hPa
Clouds: Few Clouds
Visibility: 10 miles , 16 km
Cloud details: Few Clouds 10000 ft
2020/04/07 18:53 KDEN 071853Z 00000KT 10SM FEW100 21/M08 A2997 RMK AO2 SLP093 T02061083
KSFO - San Francisco, California
Updated: Tue, Apr-Tue-2020 1:56pm
Few Clouds
Few Clouds
 Wind from NE
Wind: NE 5 mph , 7 km/h
Temperature: 54°F , 12°C
Dew Point: 45°F , 7°C
Humidity: 72%
Barometer: 30.13 inHg , 1020.3 hPa
Clouds: Few Clouds
Visibility: 10 miles , 16 km
Cloud details: Few Clouds 2500 ft
2020/04/07 18:56 KSFO 071856Z 04004KT 10SM FEW025 12/07 A3013 RMK AO2 SLP204 T01170067
KLAX - Los Angeles, California
Updated: Tue, Apr-Tue-2020 1:53pm
Mostly cloudy
Mostly cloudy
 Wind from E
Wind: E 3 mph , 6 km/h
Temperature: 66°F , 19°C
Dew Point: 46°F , 8°C
Humidity: 49%
Barometer: 30.04 inHg , 1017.3 hPa
Clouds: Mostly cloudy
Visibility: 10 miles , 16 km
Cloud details: Few Clouds 1000 ft
Partly cloudy 6500 ft
Mostly cloudy 11000 ft
2020/04/07 18:53 KLAX 071853Z 09003KT 10SM FEW010 SCT065 BKN110 19/08 A3004 RMK AO2 SLP172 T01890078